New Hope, Minnesota
Current Conditions -  °F | °C
As of 10:53 PM on Saturday 22 Nov 2014 (Local Time) from KMIC Reporting Station
Haze Haze  
Wind Chill: 33°   Ceiling: 600
Heat Index: 40°   Visibility: 2mi
Dew Point: 38°   Wind: 10mph
Humidity: 93%   Direction: 150°SSE
Pressure: 29.5"   Gusts: NA
Location:  45.0617°N, 93.3804°W
Report Text: KMIC 230453Z AUTO 15009KT 2SM BR OVC006 04/03 A2950 RMK AO2 CIG 004V009 SLP995 T00440033
Loading
Personal Weather Stations






























Interactive Weather Map New forecast layout! Learn more

10-Day Weather Forecast

Advertisements
Track Severe Weather on mobile